This is the latest recevied weather packets stored in our database for station/object KE0FIN. If no packets are shown the sender has not sent any weather packets the latest 10 day(s).
| Time | Temp. | Humidity | Pressure | Rain* | Wind** | Luminosity | Snow |
|---|---|---|---|---|---|---|---|
| 1777575184 | 17.22° C | 50% | 1069.4 hPa | 0 mm | - | 85 W/m² | - |
| 1777572447 | 17.78° C | 47% | 1069.9 hPa | 0 mm | - | 209 W/m² | - |
| 1777570321 | 17.78° C | 44% | 1070.4 hPa | 0 mm | - | 239 W/m² | - |
| 1777569408 | 17.22° C | 47% | 1070.7 hPa | 0 mm | - | 248 W/m² | - |
| 1777567582 | 16.11° C | 55% | 1070.7 hPa | 0 mm | - | 202 W/m² | - |
| 1777567280 | 16.11° C | 58% | 1070.8 hPa | 0 mm | - | 180 W/m² | - |
| 1777566978 | 15.56° C | 59% | 1070.7 hPa | 0 mm | - | 181 W/m² | - |
| 1777566373 | 15° C | 60% | 1071.2 hPa | 0 mm | - | 206 W/m² | - |
| 1777566070 | 15° C | 61% | 1071.1 hPa | 0 mm | - | 181 W/m² | - |
| 1777565158 | 14.44° C | 69% | 1071 hPa | 0 mm | - | 196 W/m² | - |
| 1777564855 | 13.89° C | 67% | 1071.1 hPa | 0 mm | - | 192 W/m² | - |
| 1777564245 | 13.33° C | 72% | 1071 hPa | 0 mm | - | 176 W/m² | - |
| 1777563638 | 12.78° C | 75% | 1071.2 hPa | 0 mm | - | 172 W/m² | - |
| 1777563338 | 12.78° C | 76% | 1071.4 hPa | 0 mm | - | 159 W/m² | - |
| 1777563034 | 12.22° C | 78% | 1071.1 hPa | 0 mm | - | 154 W/m² | - |
| 1777562730 | 11.67° C | 80% | 1071.2 hPa | 0 mm | - | 137 W/m² | - |
| 1777562429 | 11.67° C | 83% | 1071.2 hPa | 0 mm | - | 121 W/m² | - |
| 1777562126 | 11.67° C | 82% | 1071.4 hPa | 0 mm | - | 107 W/m² | - |
| 1777561824 | 11.67° C | 80% | 1071.3 hPa | 0 mm | - | 96 W/m² | - |
| 1777561520 | 11.67° C | 80% | 1071.3 hPa | 0 mm | - | 81 W/m² | - |
| 1777559400 | 11.11° C | 80% | 1071.7 hPa | 0 mm | - | 34 W/m² | - |
| 1777558792 | 10.56° C | 80% | 1071.7 hPa | 0 mm | - | 49 W/m² | - |
| 1777558184 | 10.56° C | 78% | 1071.8 hPa | 0 mm | - | 59 W/m² | - |
| 1777557578 | 10° C | 79% | 1071.6 hPa | 0 mm | - | 110 W/m² | - |
| 1777556970 | 9.44° C | 81% | 1071.6 hPa | 0 mm | - | 85 W/m² | - |
* Rain latest hour (hover to see other rain measurements)
** Current wind speed in m/s (hover to see current wind gust speed)